Time;durP1;ratioP1;P1;durP2;ratioP2;P2;SDS_P1;SDS_P2;PMS_P1;PMS_P2;Temp;Humidity;BMP_temperature;BMP_pressure;BME280_temperature;BME280_humidity;BME280_pressure;Samples;Min_cycle;Max_cycle;Signal;HPM_P1;HPM_P2
2020/12/25 00:01:22;;;;;;;0.15;0.00;;;3.10;99.90;;;;;;5096523;28;20023;-75
2020/12/25 00:03:48;;;;;;;0.63;0.00;;;3.10;99.90;;;;;;5095611;28;20024;-74
2020/12/25 00:06:14;;;;;;;6.25;0.00;;;3.10;99.90;;;;;;5097091;28;20124;-74
2020/12/25 00:08:39;;;;;;;2.17;0.00;;;3.10;99.90;;;;;;5094814;28;20028;-74
2020/12/25 00:11:05;;;;;;;0.20;0.00;;;3.10;99.90;;;;;;5096062;28;20558;-76
2020/12/25 00:13:30;;;;;;;0.20;0.00;;;3.00;99.90;;;;;;5095283;28;20032;-74
2020/12/25 00:15:56;;;;;;;1.65;0.00;;;3.00;99.90;;;;;;5096916;28;20107;-75
2020/12/25 00:18:22;;;;;;;2.40;0.38;;;3.00;99.90;;;;;;5095109;28;20039;-75
2020/12/25 00:20:49;;;;;;;3.20;0.00;;;3.10;99.90;;;;;;5096645;28;20042;-74
2020/12/25 00:23:14;;;;;;;2.45;0.40;;;3.10;99.90;;;;;;5095145;28;20059;-75
2020/12/25 00:25:40;;;;;;;1.73;0.00;;;3.10;99.90;;;;;;5095202;28;20031;-74
2020/12/25 00:28:05;;;;;;;0.88;0.00;;;3.10;99.90;;;;;;5097035;28;20027;-74
2020/12/25 00:30:31;;;;;;;5.07;0.52;;;3.10;99.90;;;;;;5095186;28;20032;-74
2020/12/25 00:32:56;;;;;;;3.33;0.00;;;3.10;99.90;;;;;;5095018;28;20514;-74
2020/12/25 00:35:22;;;;;;;2.33;0.00;;;3.30;99.90;;;;;;5094556;28;20039;-74
2020/12/25 00:37:47;;;;;;;3.28;0.10;;;3.30;99.90;;;;;;5094858;28;20066;-75
2020/12/25 00:40:13;;;;;;;4.78;0.10;;;3.40;99.90;;;;;;5095243;28;20024;-75
2020/12/25 00:42:38;;;;;;;0.60;0.00;;;3.40;99.90;;;;;;5096209;28;20063;-77
2020/12/25 00:45:04;;;;;;;0.77;0.00;;;3.30;99.90;;;;;;5094977;28;20058;-75
2020/12/25 00:47:29;;;;;;;0.25;0.00;;;3.40;99.90;;;;;;5096120;28;20111;-74
2020/12/25 00:49:55;;;;;;;1.65;0.00;;;3.30;99.90;;;;;;5095704;28;20027;-74
2020/12/25 00:52:24;;;;;;;1.45;0.00;;;3.40;99.90;;;;;;5096547;28;20020;-74
2020/12/25 00:54:50;;;;;;;2.10;0.00;;;3.40;99.90;;;;;;5094618;28;20023;-74
2020/12/25 00:57:15;;;;;;;2.72;0.00;;;3.40;99.90;;;;;;5095711;28;20066;-74
2020/12/25 00:59:41;;;;;;;1.02;0.00;;;3.40;99.90;;;;;;5095391;28;20052;-75
2020/12/25 01:02:06;;;;;;;2.22;0.30;;;3.40;99.90;;;;;;5095716;28;20028;-74
2020/12/25 01:04:32;;;;;;;3.08;0.00;;;3.40;99.90;;;;;;5093847;28;20505;-74
2020/12/25 01:06:57;;;;;;;0.00;0.00;;;3.40;99.90;;;;;;5095193;28;20031;-74
2020/12/25 01:09:24;;;;;;;3.70;0.10;;;3.40;99.90;;;;;;5095103;28;20031;-74
2020/12/25 01:11:50;;;;;;;2.05;0.00;;;3.40;99.90;;;;;;5094031;28;20024;-75
2020/12/25 01:14:15;;;;;;;1.45;0.00;;;3.30;99.90;;;;;;5094386;28;20028;-75
2020/12/25 01:16:41;;;;;;;1.65;0.00;;;3.30;99.90;;;;;;5095772;28;20380;-75
2020/12/25 01:19:06;;;;;;;2.75;0.00;;;3.30;99.90;;;;;;5095954;28;20024;-74
2020/12/25 01:21:32;;;;;;;6.45;0.00;;;3.30;99.90;;;;;;5095473;28;20095;-74
2020/12/25 01:23:58;;;;;;;2.05;0.47;;;3.30;99.90;;;;;;5094399;28;20016;-74
2020/12/25 01:26:23;;;;;;;1.65;0.35;;;3.20;99.90;;;;;;5095596;28;20024;-75
2020/12/25 01:28:49;;;;;;;1.02;0.00;;;3.20;99.90;;;;;;5093713;28;20082;-75
2020/12/25 01:31:14;;;;;;;1.35;0.00;;;3.20;99.90;;;;;;5095191;28;20081;-76
2020/12/25 01:33:40;;;;;;;1.00;0.00;;;3.20;99.90;;;;;;5095214;28;20028;-74
2020/12/25 01:36:05;;;;;;;1.38;0.00;;;3.10;99.90;;;;;;5095397;28;20107;-74
2020/12/25 01:38:32;;;;;;;1.08;0.05;;;3.20;99.90;;;;;;5094749;28;20024;-74
2020/12/25 01:40:58;;;;;;;3.00;0.00;;;3.20;99.90;;;;;;5093877;28;20020;-74
2020/12/25 01:43:24;;;;;;;0.75;0.00;;;3.10;99.90;;;;;;5095380;28;20366;-74
2020/12/25 01:45:50;;;;;;;4.28;0.00;;;3.10;99.90;;;;;;5094217;28;20059;-74
2020/12/25 01:48:16;;;;;;;1.23;0.00;;;3.20;99.90;;;;;;5094378;28;20024;-74
2020/12/25 01:50:42;;;;;;;3.85;0.52;;;3.20;99.90;;;;;;5094892;28;20016;-75
2020/12/25 01:53:10;;;;;;;3.92;0.38;;;3.20;99.90;;;;;;5093587;28;20025;-74
2020/12/25 01:55:37;;;;;;;0.25;0.03;;;3.30;99.90;;;;;;5095375;28;20024;-74
2020/12/25 01:58:06;;;;;;;2.17;0.00;;;3.40;99.90;;;;;;5094789;28;20103;-74
2020/12/25 02:00:32;;;;;;;;;;;3.50;99.90;;;;;;5094091;28;20020;-75
2020/12/25 02:03:01;;;;;;;3.22;0.15;;;3.60;99.90;;;;;;5095578;28;20311;-75
2020/12/25 02:05:26;;;;;;;1.75;0.00;;;5.30;99.90;;;;;;5095430;28;20013;-74
2020/12/25 02:07:55;;;;;;;3.17;0.00;;;3.60;99.90;;;;;;5095846;28;20346;-74
2020/12/25 02:10:21;;;;;;;2.17;0.30;;;3.70;99.90;;;;;;5094616;28;20016;-76
2020/12/25 02:12:47;;;;;;;1.65;0.00;;;3.70;99.90;;;;;;5095087;28;20385;-75
2020/12/25 02:15:13;;;;;;;2.05;0.20;;;3.60;99.90;;;;;;5093757;28;20016;-75
2020/12/25 02:17:43;;;;;;;0.00;0.00;;;3.60;99.90;;;;;;5095168;28;20020;-75
2020/12/25 02:20:09;;;;;;;0.47;0.00;;;3.50;99.90;;;;;;5094017;28;20027;-74
2020/12/25 02:22:35;;;;;;;0.80;0.00;;;3.40;99.90;;;;;;5094792;28;20025;-74
2020/12/25 02:25:00;;;;;;;0.68;0.00;;;3.40;99.90;;;;;;5094794;28;20346;-74
2020/12/25 02:27:26;;;;;;;1.25;0.00;;;3.40;99.90;;;;;;5092714;28;20039;-75
2020/12/25 02:29:51;;;;;;;0.88;0.00;;;3.30;99.90;;;;;;5093417;28;20035;-75
2020/12/25 02:32:17;;;;;;;2.67;0.30;;;3.30;99.90;;;;;;5093109;28;20107;-75
2020/12/25 02:34:43;;;;;;;0.52;0.00;;;3.20;99.90;;;;;;5098308;28;20024;-75
2020/12/25 02:37:08;;;;;;;1.90;0.00;;;3.20;99.90;;;;;;5096584;28;20024;-74
2020/12/25 02:39:34;;;;;;;0.57;0.00;;;3.10;99.90;;;;;;5096288;28;20078;-75
2020/12/25 02:42:00;;;;;;;1.17;0.20;;;3.00;99.90;;;;;;5098098;28;20354;-75
2020/12/25 02:44:25;;;;;;;2.60;0.00;;;2.80;99.90;;;;;;5096693;28;20177;-75
2020/12/25 02:46:51;;;;;;;0.47;0.00;;;2.80;99.90;;;;;;5096614;28;20488;-75
2020/12/25 02:49:17;;;;;;;0.15;0.00;;;2.80;99.90;;;;;;5098241;28;20028;-74
2020/12/25 02:51:42;;;;;;;4.00;0.17;;;3.10;99.90;;;;;;5098151;28;20024;-75
2020/12/25 02:54:08;;;;;;;2.50;0.35;;;2.70;99.90;;;;;;5098259;28;20035;-76
2020/12/25 02:56:34;;;;;;;3.35;0.00;;;2.70;99.90;;;;;;5096998;28;20027;-75
2020/12/25 02:58:59;;;;;;;0.75;0.00;;;2.70;99.90;;;;;;5097746;28;20499;-74
2020/12/25 03:01:25;;;;;;;0.65;0.00;;;2.60;99.90;;;;;;5096439;28;20030;-74
2020/12/25 03:03:50;;;;;;;0.03;0.00;;;2.60;99.90;;;;;;5096181;28;20031;-76
2020/12/25 03:06:16;;;;;;;1.35;0.05;;;2.60;99.90;;;;;;5097963;28;20107;-75
2020/12/25 03:08:41;;;;;;;4.13;0.00;;;2.60;99.90;;;;;;5096840;28;20020;-74
2020/12/25 03:11:07;;;;;;;3.42;0.47;;;2.60;99.90;;;;;;5097964;28;20024;-74
2020/12/25 03:13:36;;;;;;;0.00;0.00;;;2.50;99.90;;;;;;5096280;28;20032;-75
2020/12/25 03:16:02;;;;;;;0.47;0.15;;;2.40;99.90;;;;;;5097531;28;20095;-76
2020/12/25 03:18:28;;;;;;;3.58;0.00;;;2.40;99.90;;;;;;5096141;28;20031;-76
2020/12/25 03:20:53;;;;;;;0.00;0.00;;;2.30;99.90;;;;;;5095819;28;20020;-74
2020/12/25 03:23:19;;;;;;;3.38;0.00;;;2.30;99.90;;;;;;5096308;28;20396;-75
2020/12/25 03:25:44;;;;;;;0.88;0.00;;;2.30;99.90;;;;;;5095992;28;20154;-75
2020/12/25 03:28:10;;;;;;;0.25;0.00;;;2.30;99.90;;;;;;5097184;28;20495;-75
2020/12/25 03:30:35;;;;;;;1.52;0.00;;;2.20;99.90;;;;;;5097143;28;20028;-74
2020/12/25 03:33:01;;;;;;;0.65;0.00;;;2.20;99.90;;;;;;5097680;28;20123;-76
2020/12/25 03:35:26;;;;;;;2.13;0.05;;;2.20;99.90;;;;;;5096230;28;20024;-75
2020/12/25 03:37:52;;;;;;;3.22;0.00;;;2.10;99.90;;;;;;5097202;28;20028;-74
2020/12/25 03:40:18;;;;;;;0.25;0.00;;;2.10;99.90;;;;;;5095968;28;20492;-74
2020/12/25 03:42:43;;;;;;;0.47;0.00;;;2.10;99.90;;;;;;5097219;28;20425;-74
2020/12/25 03:45:09;;;;;;;3.22;0.28;;;2.00;99.90;;;;;;5095769;28;20023;-74
2020/12/25 03:47:35;;;;;;;0.85;0.00;;;2.10;99.90;;;;;;5097107;28;20016;-75
2020/12/25 03:50:00;;;;;;;1.08;0.00;;;2.00;99.90;;;;;;5095866;28;20377;-74
2020/12/25 03:52:26;;;;;;;1.38;0.00;;;2.10;99.90;;;;;;5096543;28;20028;-74
2020/12/25 03:54:51;;;;;;;2.00;0.00;;;2.00;99.90;;;;;;5095800;28;20020;-74
2020/12/25 03:57:17;;;;;;;1.58;0.52;;;2.00;99.90;;;;;;5097109;28;20039;-76
2020/12/25 03:59:42;;;;;;;1.95;0.00;;;2.00;99.90;;;;;;5095656;28;20408;-75
2020/12/25 04:02:08;;;;;;;1.75;0.00;;;2.00;99.90;;;;;;5096812;28;20016;-75
2020/12/25 04:04:33;;;;;;;0.30;0.00;;;1.90;99.90;;;;;;5096797;28;20476;-74
2020/12/25 04:06:59;;;;;;;3.70;0.00;;;1.90;99.90;;;;;;5086961;28;20025;-74
2020/12/25 04:09:25;;;;;;;2.28;0.00;;;1.80;99.90;;;;;;5074900;28;20155;-76
2020/12/25 04:11:50;;;;;;;0.30;0.00;;;1.80;99.90;;;;;;5089995;28;20027;-74
2020/12/25 04:14:19;;;;;;;1.02;0.00;;;1.80;99.90;;;;;;5096559;28;20028;-76
2020/12/25 04:16:45;;;;;;;;;;;1.80;99.90;;;;;;5097239;28;20020;-76
2020/12/25 04:19:10;;;;;;;2.88;0.00;;;1.80;99.90;;;;;;5095040;28;19915;-74
2020/12/25 04:21:38;;;;;;;0.75;0.00;;;1.80;99.90;;;;;;5096453;28;20027;-74
2020/12/25 04:24:04;;;;;;;1.60;0.00;;;1.90;99.90;;;;;;5094916;28;20074;-76
2020/12/25 04:26:30;;;;;;;3.13;0.00;;;1.90;99.90;;;;;;5095857;28;20024;-76
2020/12/25 04:28:55;;;;;;;2.53;0.10;;;1.80;99.90;;;;;;5096541;28;20059;-75
2020/12/25 04:31:27;;;;;;;4.25;0.00;;;1.90;99.90;;;;;;5096297;28;20032;-76
2020/12/25 04:33:53;;;;;;;1.42;0.43;;;1.90;99.90;;;;;;5095769;28;20028;-75
2020/12/25 04:36:19;;;;;;;4.20;0.00;;;1.90;99.90;;;;;;5096501;28;20103;-75
2020/12/25 04:38:45;;;;;;;4.38;0.65;;;2.00;99.90;;;;;;5094312;28;20073;-75
2020/12/25 04:41:11;;;;;;;3.45;0.52;;;2.00;99.90;;;;;;5094567;28;20023;-74
2020/12/25 04:43:41;;;;;;;2.50;0.00;;;2.00;99.90;;;;;;5096214;28;20016;-74
2020/12/25 04:46:08;;;;;;;1.25;0.00;;;2.00;99.90;;;;;;5096464;28;20052;-75
2020/12/25 04:48:37;;;;;;;3.50;0.38;;;2.00;99.90;;;;;;5096232;28;20024;-74
2020/12/25 04:51:04;;;;;;;2.40;0.13;;;2.10;99.90;;;;;;5095876;28;20024;-76
2020/12/25 04:53:30;;;;;;;3.67;0.05;;;2.20;99.90;;;;;;5095610;28;20104;-76
2020/12/25 04:55:57;;;;;;;3.15;0.00;;;2.20;99.90;;;;;;5096407;28;20027;-74
2020/12/25 04:58:22;;;;;;;5.38;0.17;;;2.20;99.90;;;;;;5095071;28;20048;-74
2020/12/25 05:01:07;;;;;;;2.60;0.00;;;2.20;99.90;;;;;;5095562;28;20019;-75
2020/12/25 05:03:38;;;;;;;4.93;0.05;;;2.20;99.90;;;;;;5096553;28;20024;-76
2020/12/25 05:06:07;;;;;;;3.05;0.05;;;2.20;99.90;;;;;;5095612;28;20468;-74
2020/12/25 05:08:44;;;;;;;2.47;0.35;;;2.20;99.90;;;;;;5096355;28;20028;-74
2020/12/25 05:11:12;;;;;;;3.88;0.45;;;2.20;99.90;;;;;;5095790;28;20546;-74
2020/12/25 05:13:49;;;;;;;5.28;0.00;;;2.10;99.90;;;;;;5093706;28;20024;-74
2020/12/25 05:16:15;;;;;;;3.05;0.10;;;2.10;99.90;;;;;;5095566;28;20023;-75
2020/12/25 05:18:43;;;;;;;5.07;0.25;;;2.20;99.90;;;;;;5094909;28;20062;-76
2020/12/25 05:21:13;;;;;;;5.32;0.17;;;2.20;99.90;;;;;;5094978;28;20073;-75
2020/12/25 05:23:41;;;;;;;4.57;0.00;;;2.20;99.90;;;;;;5094232;28;20012;-74
2020/12/25 05:26:09;;;;;;;6.75;0.17;;;2.10;99.90;;;;;;5094197;28;20060;-76
2020/12/25 05:28:40;;;;;;;2.03;0.10;;;2.10;99.90;;;;;;5094310;28;20016;-74
2020/12/25 05:31:06;;;;;;;7.75;0.00;;;2.10;99.90;;;;;;5095051;28;20039;-74
2020/12/25 05:33:33;;;;;;;7.63;0.85;;;2.20;99.90;;;;;;5095388;28;20409;-74
2020/12/25 05:36:01;;;;;;;5.07;0.00;;;2.20;99.90;;;;;;5094776;28;20020;-74
2020/12/25 05:38:27;;;;;;;2.53;0.00;;;2.20;99.90;;;;;;5096195;28;20024;-74
2020/12/25 05:40:54;;;;;;;6.55;0.25;;;2.20;99.90;;;;;;5093884;28;20107;-74
2020/12/25 05:43:20;;;;;;;4.22;0.17;;;2.20;99.90;;;;;;5095174;28;20534;-76
2020/12/25 05:45:46;;;;;;;1.90;0.05;;;2.20;99.90;;;;;;5095054;28;20016;-75
2020/12/25 05:48:12;;;;;;;5.40;0.73;;;2.20;99.90;;;;;;5094766;28;20031;-75
2020/12/25 05:50:39;;;;;;;5.13;0.00;;;2.30;99.90;;;;;;5095036;28;20023;-74
2020/12/25 05:53:05;;;;;;;4.28;0.00;;;2.20;99.90;;;;;;5095423;28;20517;-74
2020/12/25 05:55:31;;;;;;;5.25;0.10;;;2.20;99.90;;;;;;5093801;28;20055;-74
2020/12/25 05:57:57;;;;;;;2.33;0.15;;;2.20;99.90;;;;;;5094401;28;20032;-74
2020/12/25 06:00:25;;;;;;;4.68;0.40;;;2.20;99.90;;;;;;5093654;28;20027;-74
2020/12/25 06:02:53;;;;;;;5.63;0.43;;;2.10;99.90;;;;;;5095101;28;20020;-75
2020/12/25 06:05:23;;;;;;;1.83;0.00;;;2.20;99.90;;;;;;5095051;28;20020;-74
2020/12/25 06:07:56;;;;;;;3.88;0.00;;;2.20;99.90;;;;;;5098392;28;20115;-74
2020/12/25 06:10:27;;;;;;;7.50;0.10;;;2.20;99.90;;;;;;5102123;28;20031;-76
2020/12/25 06:12:55;;;;;;;5.47;0.00;;;2.20;99.90;;;;;;5081565;28;20476;-74
2020/12/25 06:15:27;;;;;;;5.53;0.17;;;2.30;99.90;;;;;;5079923;28;20354;-75
2020/12/25 06:18:16;;;;;;;1.83;0.05;;;2.30;99.90;;;;;;5080036;28;20017;-75
2020/12/25 06:20:53;;;;;;;5.68;0.28;;;2.40;99.90;;;;;;5079939;28;20024;-74
2020/12/25 06:23:21;;;;;;;11.10;0.70;;;2.40;99.90;;;;;;5080886;28;20024;-74
2020/12/25 06:25:51;;;;;;;2.88;0.47;;;2.50;99.90;;;;;;5081291;28;20030;-74
2020/12/25 06:28:18;;;;;;;0.88;0.05;;;2.50;99.90;;;;;;5091792;28;20020;-75
2020/12/25 06:30:43;;;;;;;8.88;0.25;;;2.60;99.90;;;;;;5099628;28;20096;-73
2020/12/25 06:33:10;;;;;;;9.20;0.30;;;2.60;99.90;;;;;;5101290;28;20031;-74
2020/12/25 06:35:38;;;;;;;5.35;0.13;;;2.70;99.90;;;;;;5101300;28;20028;-74
2020/12/25 06:38:18;;;;;;;2.10;0.10;;;2.80;99.90;;;;;;5100045;28;20048;-74
2020/12/25 06:40:46;;;;;;;3.53;0.17;;;2.80;99.90;;;;;;5100210;28;20254;-75
2020/12/25 06:43:17;;;;;;;0.67;0.07;;;2.80;99.90;;;;;;5101456;28;20016;-74
2020/12/25 06:45:44;;;;;;;2.55;0.15;;;2.80;99.90;;;;;;5083552;28;20416;-74
2020/12/25 06:48:12;;;;;;;2.28;0.00;;;2.80;99.90;;;;;;5081138;28;20392;-75
2020/12/25 06:50:53;;;;;;;5.97;0.30;;;2.80;99.90;;;;;;5080718;28;20020;-74
2020/12/25 06:53:41;;;;;;;2.95;0.03;;;2.70;99.90;;;;;;5081332;28;20485;-76
2020/12/25 06:56:17;;;;;;;2.85;0.10;;;2.70;99.90;;;;;;5081226;28;20070;-74
2020/12/25 06:58:48;;;;;;;4.38;0.00;;;2.60;99.90;;;;;;5081141;28;20025;-76
2020/12/25 07:01:15;;;;;;;2.47;0.20;;;2.50;99.90;;;;;;5081910;28;20025;-74
2020/12/25 07:03:41;;;;;;;9.13;0.88;;;2.40;99.90;;;;;;5079517;28;20038;-74
2020/12/25 07:06:10;;;;;;;2.75;0.35;;;2.30;99.90;;;;;;5081122;28;20027;-74
2020/12/25 07:08:44;;;;;;;3.38;0.00;;;2.30;99.90;;;;;;5080799;28;20036;-75
2020/12/25 07:11:10;;;;;;;4.95;0.00;;;2.20;99.90;;;;;;5079877;28;20108;-73
2020/12/25 07:13:37;;;;;;;2.13;0.10;;;2.20;99.90;;;;;;5080083;28;20166;-74
2020/12/25 07:16:05;;;;;;;3.72;0.30;;;2.20;99.90;;;;;;5081031;28;20047;-76
2020/12/25 07:18:31;;;;;;;2.15;0.03;;;2.30;99.90;;;;;;5080305;28;20032;-75
2020/12/25 07:21:02;;;;;;;0.52;0.00;;;2.30;99.90;;;;;;5077644;28;20146;-75
2020/12/25 07:23:28;;;;;;;4.47;0.43;;;2.30;99.90;;;;;;5089924;28;20044;-74
2020/12/25 07:26:02;;;;;;;4.40;0.00;;;2.20;99.90;;;;;;5096980;28;20032;-73
2020/12/25 07:30:57;;;;;;;3.30;0.00;;;2.20;99.90;;;;;;5101168;22;20055;-75
2020/12/25 07:33:23;;;;;;;2.42;0.03;;;2.10;99.90;;;;;;5096495;28;20362;-75
2020/12/25 07:35:50;;;;;;;5.10;0.00;;;2.00;99.90;;;;;;5096441;28;20376;-74
2020/12/25 07:38:16;;;;;;;2.50;0.00;;;2.00;99.90;;;;;;5077514;28;20111;-74
2020/12/25 07:40:43;;;;;;;1.73;0.00;;;2.00;99.90;;;;;;5091830;28;20032;-74
2020/12/25 07:43:09;;;;;;;2.97;0.00;;;1.90;99.90;;;;;;5097754;28;20028;-74
2020/12/25 07:45:36;;;;;;;2.65;0.20;;;1.90;99.90;;;;;;5097480;28;20024;-74
2020/12/25 07:48:03;;;;;;;2.08;0.00;;;1.70;99.90;;;;;;5098078;28;20063;-75
2020/12/25 07:50:44;;;;;;;6.50;0.00;;;1.70;99.90;;;;;;5096902;28;20107;-74
2020/12/25 07:53:11;;;;;;;2.40;0.00;;;1.60;99.90;;;;;;5097315;28;20016;-75
2020/12/25 07:55:37;;;;;;;3.05;0.28;;;1.60;99.90;;;;;;5096909;28;20046;-75
2020/12/25 07:58:03;;;;;;;7.45;1.15;;;1.60;99.90;;;;;;5098151;28;20036;-75
2020/12/25 08:00:30;;;;;;;9.82;0.20;;;1.60;99.90;;;;;;5098087;28;20464;-75
2020/12/25 08:02:58;;;;;;;6.63;1.13;;;1.60;99.90;;;;;;5097016;28;20024;-74
2020/12/25 08:05:26;;;;;;;6.97;0.32;;;1.70;99.90;;;;;;5097094;28;20012;-74
2020/12/25 08:07:52;;;;;;;6.70;0.10;;;1.70;99.90;;;;;;5097632;28;20043;-74
2020/12/25 08:10:18;;;;;;;0.98;0.00;;;1.70;99.90;;;;;;5094710;28;20016;-74
2020/12/25 08:12:48;;;;;;;6.57;0.30;;;1.80;99.90;;;;;;5095578;28;20093;-74
2020/12/25 08:15:14;;;;;;;8.85;0.50;;;1.80;99.90;;;;;;5096506;28;20023;-74
2020/12/25 08:17:40;;;;;;;4.57;0.08;;;1.80;99.90;;;;;;5097340;28;20461;-74
2020/12/25 08:20:06;;;;;;;1.63;0.00;;;1.80;99.90;;;;;;5096423;28;20024;-74
2020/12/25 08:22:31;;;;;;;5.68;0.38;;;1.80;99.90;;;;;;5094997;28;20023;-74
2020/12/25 08:24:58;;;;;;;4.60;0.35;;;1.80;99.90;;;;;;5076380;28;20028;-74
2020/12/25 08:27:24;;;;;;;4.63;0.00;;;1.90;99.90;;;;;;5076583;28;20043;-74
2020/12/25 08:29:51;;;;;;;5.78;0.00;;;1.90;99.90;;;;;;5074584;28;20027;-74
2020/12/25 08:32:17;;;;;;;7.05;0.03;;;1.90;99.90;;;;;;5077311;28;20508;-74
2020/12/25 08:34:42;;;;;;;5.95;0.38;;;1.90;99.90;;;;;;5095239;28;20020;-75
2020/12/25 08:37:09;;;;;;;3.58;0.00;;;1.90;99.90;;;;;;5096896;28;20460;-75
2020/12/25 08:39:35;;;;;;;7.70;0.00;;;1.90;99.90;;;;;;5096308;28;20044;-75
2020/12/25 08:42:01;;;;;;;5.00;0.30;;;2.00;99.90;;;;;;5096200;28;20016;-75
2020/12/25 08:44:27;;;;;;;4.93;0.30;;;2.00;99.90;;;;;;5094925;28;20031;-75
2020/12/25 08:47:06;;;;;;;7.75;0.52;;;2.10;99.90;;;;;;5096248;28;20018;-75
2020/12/25 08:49:32;;;;;;;3.35;0.10;;;2.10;99.90;;;;;;5096497;28;20472;-74
2020/12/25 08:51:58;;;;;;;5.30;0.30;;;2.20;99.90;;;;;;5094411;28;20030;-74
2020/12/25 08:54:28;;;;;;;2.83;0.55;;;2.30;99.90;;;;;;5094757;28;20088;-75
2020/12/25 08:56:54;;;;;;;4.55;0.00;;;2.40;99.90;;;;;;5094818;28;20024;-74
2020/12/25 08:59:20;;;;;;;1.75;0.00;;;2.50;99.90;;;;;;5094301;28;20036;-74
2020/12/25 09:01:47;;;;;;;7.57;0.55;;;2.50;99.90;;;;;;5095264;28;20073;-73
2020/12/25 09:04:20;;;;;;;3.72;0.00;;;2.60;99.90;;;;;;5093239;28;20489;-72
2020/12/25 09:06:50;;;;;;;2.95;0.00;;;2.70;99.90;;;;;;5095029;28;20488;-73
2020/12/25 09:09:15;;;;;;;8.68;0.85;;;2.80;99.90;;;;;;5095016;28;20051;-74
2020/12/25 09:11:41;;;;;;;4.13;0.00;;;2.80;99.90;;;;;;5095034;28;20085;-73
2020/12/25 09:14:07;;;;;;;6.07;0.15;;;2.90;99.90;;;;;;5096255;28;20016;-73
2020/12/25 09:16:35;;;;;;;2.80;0.00;;;3.00;99.90;;;;;;5094310;28;20024;-75
2020/12/25 09:19:01;;;;;;;1.80;0.00;;;3.10;99.90;;;;;;5095325;28;20048;-74
2020/12/25 09:21:30;;;;;;;4.07;0.38;;;3.20;99.90;;;;;;5093374;28;20020;-74
2020/12/25 09:23:56;;;;;;;;;;;3.20;99.90;;;;;;5096031;28;20477;-74
2020/12/25 09:26:22;;;;;;;7.22;0.20;;;3.30;99.90;;;;;;5095504;28;19961;-74
2020/12/25 09:28:48;;;;;;;6.45;0.68;;;3.40;99.90;;;;;;5095989;28;20425;-74
2020/12/25 09:31:13;;;;;;;4.13;0.08;;;3.50;99.90;;;;;;5094229;28;20042;-74
2020/12/25 09:33:40;;;;;;;6.18;0.17;;;3.50;99.90;;;;;;5094972;28;20024;-74
2020/12/25 09:36:07;;;;;;;3.33;0.00;;;3.60;99.90;;;;;;5092981;28;20028;-74
2020/12/25 09:38:32;;;;;;;8.65;0.38;;;3.70;99.90;;;;;;5095011;28;20027;-74
2020/12/25 09:40:58;;;;;;;2.67;0.30;;;6.50;99.90;;;;;;5094407;28;20024;-74
2020/12/25 09:43:24;;;;;;;3.17;0.00;;;3.80;99.90;;;;;;5094432;28;20042;-73
2020/12/25 09:45:49;;;;;;;2.38;0.25;;;3.90;99.90;;;;;;5095867;28;20020;-73
2020/12/25 09:48:15;;;;;;;1.88;0.00;;;3.90;99.90;;;;;;5094334;28;20024;-73
2020/12/25 09:50:43;;;;;;;2.25;0.00;;;4.10;99.90;;;;;;5094417;28;20020;-74
2020/12/25 09:53:09;;;;;;;6.03;0.90;;;4.20;99.90;;;;;;5093080;28;20070;-74
2020/12/25 09:55:40;;;;;;;3.80;0.00;;;4.30;99.90;;;;;;5094491;28;20016;-74
2020/12/25 09:58:06;;;;;;;2.38;0.00;;;4.30;99.90;;;;;;5093885;28;20016;-74
2020/12/25 10:00:32;;;;;;;3.80;0.32;;;4.40;99.90;;;;;;5095962;28;20035;-74
2020/12/25 10:02:58;;;;;;;6.63;0.05;;;4.50;99.90;;;;;;5093900;28;20107;-74
2020/12/25 10:05:23;;;;;;;1.98;0.08;;;4.60;99.90;;;;;;5093950;28;20440;-74
2020/12/25 10:07:52;;;;;;;7.10;0.77;;;4.60;99.90;;;;;;5094754;28;20461;-74
2020/12/25 10:10:21;;;;;;;3.10;0.00;;;4.60;99.90;;;;;;5092662;28;20016;-74
2020/12/25 10:12:50;;;;;;;2.25;0.20;;;4.70;99.90;;;;;;5095118;28;20039;-75
2020/12/25 10:15:16;;;;;;;5.22;0.10;;;4.80;99.90;;;;;;5094289;28;20024;-76
2020/12/25 10:17:42;;;;;;;3.22;0.13;;;4.90;99.90;;;;;;5095405;28;20020;-76
2020/12/25 10:20:08;;;;;;;4.28;0.28;;;4.90;99.90;;;;;;5095054;28;20366;-76
2020/12/25 10:22:34;;;;;;;2.65;0.10;;;5.00;99.90;;;;;;5094503;28;20469;-76
2020/12/25 10:24:59;;;;;;;2.13;0.00;;;5.10;99.90;;;;;;5094712;28;20065;-76
2020/12/25 10:27:25;;;;;;;5.63;0.00;;;5.10;99.90;;;;;;5093331;28;20541;-76
2020/12/25 10:29:54;;;;;;;1.13;0.17;;;5.20;99.90;;;;;;5093945;28;20016;-76
2020/12/25 10:32:19;;;;;;;6.13;0.05;;;6.70;99.90;;;;;;5093866;28;20066;-76
2020/12/25 10:34:45;;;;;;;6.47;0.75;;;5.30;99.90;;;;;;5095052;28;20020;-76
2020/12/25 10:37:11;;;;;;;3.70;0.15;;;5.40;99.90;;;;;;5094697;28;20020;-74
2020/12/25 10:39:37;;;;;;;2.25;0.40;;;5.50;99.90;;;;;;5093194;28;20031;-73
2020/12/25 10:42:07;;;;;;;1.73;0.13;;;5.40;99.90;;;;;;5093765;28;20016;-73
2020/12/25 10:44:32;;;;;;;5.10;0.50;;;5.40;99.90;;;;;;5093391;28;20173;-73
2020/12/25 10:46:59;;;;;;;6.45;0.57;;;5.50;99.90;;;;;;5093155;28;20499;-74
2020/12/25 10:49:25;;;;;;;2.17;0.00;;;5.50;99.90;;;;;;5093568;28;20047;-73
2020/12/25 10:51:51;;;;;;;2.58;0.00;;;5.60;99.90;;;;;;5093707;28;20020;-73
2020/12/25 10:54:16;;;;;;;9.98;0.30;;;5.70;99.90;;;;;;5095338;28;20020;-72
2020/12/25 10:56:42;;;;;;;5.07;0.20;;;5.70;99.90;;;;;;5098261;28;20020;-73
2020/12/25 10:59:07;;;;;;;2.72;0.00;;;5.80;99.90;;;;;;5088346;28;20028;-73
2020/12/25 11:01:33;;;;;;;5.03;0.00;;;5.80;99.90;;;;;;5078177;28;20029;-73
2020/12/25 11:03:59;;;;;;;5.43;0.00;;;5.90;99.90;;;;;;5076952;28;20020;-72
2020/12/25 11:06:36;;;;;;;15.95;0.80;;;6.00;99.90;;;;;;5076796;28;20023;-73
2020/12/25 11:09:03;;;;;;;2.10;0.00;;;6.00;99.90;;;;;;5078009;28;20036;-73
2020/12/25 11:11:31;;;;;;;1.08;0.00;;;6.10;99.90;;;;;;5078393;28;20021;-72
2020/12/25 11:13:57;;;;;;;3.00;0.13;;;6.10;99.90;;;;;;5079442;28;20020;-72
2020/12/25 11:16:27;;;;;;;3.25;0.10;;;6.20;99.90;;;;;;5100327;28;20433;-77
2020/12/25 11:18:57;;;;;;;5.00;0.57;;;6.30;99.90;;;;;;5099136;28;20415;-76
2020/12/25 11:21:27;;;;;;;3.78;0.00;;;6.50;99.90;;;;;;5097542;28;20020;-77
2020/12/25 11:23:54;;;;;;;5.50;0.38;;;6.60;99.90;;;;;;5097586;28;20488;-76
2020/12/25 11:26:29;;;;;;;6.57;0.43;;;6.60;99.90;;;;;;5098333;28;20028;-77
2020/12/25 11:29:01;;;;;;;1.50;0.00;;;6.60;99.90;;;;;;5096783;28;20049;-76
2020/12/25 11:31:27;;;;;;;3.20;0.10;;;6.70;99.90;;;;;;5096026;28;20042;-75
2020/12/25 11:33:53;;;;;;;3.22;0.30;;;6.80;99.90;;;;;;5098246;28;20024;-76
2020/12/25 11:36:32;;;;;;;6.72;0.10;;;6.80;99.90;;;;;;5097884;28;20028;-76
2020/12/25 11:38:58;;;;;;;2.28;0.10;;;6.90;99.90;;;;;;5097290;28;20047;-75
2020/12/25 11:41:24;;;;;;;7.70;0.25;;;7.00;99.90;;;;;;5096492;28;20024;-76
2020/12/25 11:43:51;;;;;;;2.00;0.22;;;7.00;99.90;;;;;;5097991;28;20048;-76
2020/12/25 11:46:17;;;;;;;5.90;0.10;;;7.00;99.90;;;;;;5097922;28;20080;-76
2020/12/25 11:48:43;;;;;;;4.25;0.28;;;6.80;99.90;;;;;;5090309;28;20017;-77
2020/12/25 11:51:14;;;;;;;7.65;0.00;;;6.80;99.90;;;;;;5076072;28;20119;-76
2020/12/25 11:53:40;;;;;;;3.40;0.28;;;6.80;99.90;;;;;;5075726;28;20020;-76
2020/12/25 11:56:05;;;;;;;4.38;0.32;;;6.80;99.90;;;;;;5076090;28;20389;-74
2020/12/25 11:58:31;;;;;;;1.60;0.00;;;6.90;99.90;;;;;;5076032;28;20029;-73
2020/12/25 12:00:58;;;;;;;4.30;0.20;;;6.90;99.90;;;;;;5076659;28;20021;-74
2020/12/25 12:03:25;;;;;;;4.10;0.30;;;6.90;99.90;;;;;;5077007;28;20017;-74
2020/12/25 12:05:51;;;;;;;5.10;0.30;;;7.00;99.90;;;;;;5075751;28;20032;-72
2020/12/25 12:08:16;;;;;;;6.20;0.13;;;7.00;99.90;;;;;;5094375;28;20020;-74
2020/12/25 12:10:42;;;;;;;3.42;0.20;;;7.00;99.90;;;;;;5091647;28;20024;-73
2020/12/25 12:13:07;;;;;;;1.45;0.00;;;7.10;99.10;;;;;;5076760;28;20024;-73
2020/12/25 12:15:37;;;;;;;5.60;0.25;;;7.10;99.90;;;;;;5077311;28;20020;-74
2020/12/25 12:18:04;;;;;;;1.48;0.10;;;7.20;99.30;;;;;;5077340;28;20024;-73
2020/12/25 12:20:30;;;;;;;2.10;0.25;;;7.10;99.90;;;;;;5077357;28;20021;-72
2020/12/25 12:22:56;;;;;;;1.95;0.00;;;6.90;99.90;;;;;;5076968;28;20021;-73
2020/12/25 12:25:21;;;;;;;1.00;0.00;;;6.90;99.90;;;;;;5086924;28;20027;-79
2020/12/25 12:27:47;;;;;;;2.10;0.00;;;7.00;99.90;;;;;;5095197;28;20077;-75
2020/12/25 12:30:12;;;;;;;6.18;0.10;;;7.10;99.90;;;;;;5096089;28;20553;-77
2020/12/25 12:32:38;;;;;;;2.17;0.00;;;7.10;99.90;;;;;;5095363;28;20028;-73
2020/12/25 12:35:04;;;;;;;1.45;0.00;;;7.00;99.90;;;;;;5095413;28;20024;-74
2020/12/25 12:37:29;;;;;;;2.28;0.00;;;7.10;99.90;;;;;;5097057;28;20039;-73
2020/12/25 12:39:55;;;;;;;4.95;0.20;;;7.20;99.90;;;;;;5094811;28;20024;-73
2020/12/25 12:42:22;;;;;;;2.60;0.63;;;7.10;99.90;;;;;;5081077;28;20064;-73
2020/12/25 12:44:48;;;;;;;2.15;0.08;;;7.00;99.90;;;;;;5074328;28;20063;-74
2020/12/25 12:47:14;;;;;;;1.33;0.47;;;7.00;99.90;;;;;;5075379;28;20098;-74
2020/12/25 12:49:40;;;;;;;2.75;0.03;;;7.10;99.90;;;;;;5076364;28;20047;-73
2020/12/25 12:52:06;;;;;;;2.88;0.00;;;7.30;99.90;;;;;;5075107;28;20491;-74
2020/12/25 12:54:31;;;;;;;0.70;0.00;;;7.40;99.90;;;;;;5076379;28;20388;-72
2020/12/25 12:56:57;;;;;;;8.88;0.95;;;7.30;99.90;;;;;;5076580;28;20016;-72
2020/12/25 12:59:22;;;;;;;4.13;0.60;;;7.30;99.90;;;;;;5092768;28;20047;-73